createdAt,value
2019-05-23T00:01:42.191Z,57.40
2019-05-23T00:04:30.353Z,57.50
2019-05-23T00:06:58.599Z,57.30
2019-05-23T00:09:25.891Z,57.50
2019-05-23T00:11:59.984Z,57.70
2019-05-23T00:14:39.233Z,57.80
2019-05-23T00:17:11.307Z,58.00
2019-05-23T00:19:39.891Z,57.90
2019-05-23T00:22:09.224Z,58.00
2019-05-23T00:24:36.645Z,57.80
2019-05-23T00:27:04.850Z,57.90
2019-05-23T00:29:31.536Z,58.00
2019-05-23T00:32:02.783Z,58.20
2019-05-23T00:34:30.735Z,58.30
2019-05-23T00:36:59.282Z,59.00
2019-05-23T00:39:26.892Z,58.50
2019-05-23T00:41:53.325Z,58.40
2019-05-23T00:44:20.325Z,58.30
2019-05-23T00:46:46.908Z,58.60
2019-05-23T00:49:15.467Z,58.60
2019-05-23T00:51:42.129Z,58.70
2019-05-23T00:54:10.217Z,58.70
2019-05-23T00:56:37.454Z,58.80
2019-05-23T00:59:03.888Z,58.80
2019-05-23T01:01:32.267Z,58.80
2019-05-23T01:03:58.658Z,58.90
2019-05-23T01:06:25.027Z,59.60
2019-05-23T01:08:52.587Z,59.10
2019-05-23T01:11:21.079Z,59.10
2019-05-23T01:13:48.948Z,59.30
2019-05-23T01:16:16.492Z,59.20
2019-05-23T01:18:42.985Z,59.30
2019-05-23T01:21:21.442Z,59.40
2019-05-23T01:23:55.836Z,59.40
2019-05-23T01:26:24.071Z,59.50
2019-05-23T01:28:50.469Z,59.50
2019-05-23T01:31:24.583Z,59.60
2019-05-23T01:33:52.548Z,59.70
2019-05-23T01:36:20.283Z,59.70
2019-05-23T01:38:46.611Z,59.80
2019-05-23T01:41:13.911Z,59.70
2019-05-23T01:43:40.853Z,59.80
2019-05-23T01:46:07.995Z,59.80
2019-05-23T01:48:35.293Z,59.90
2019-05-23T01:51:01.843Z,60.10
2019-05-23T01:53:29.137Z,60.00
2019-05-23T01:55:56.078Z,60.10
2019-05-23T01:58:22.658Z,60.10
2019-05-23T02:00:49.663Z,60.10
2019-05-23T02:03:16.195Z,60.20
2019-05-23T02:05:43.551Z,60.20
2019-05-23T02:08:13.165Z,60.40
2019-05-23T02:10:40.418Z,60.40
2019-05-23T02:13:08.858Z,60.50
2019-05-23T02:15:35.705Z,60.40
2019-05-23T02:18:02.741Z,60.50
2019-05-23T02:20:29.211Z,60.50
2019-05-23T02:22:56.327Z,60.40
2019-05-23T02:25:24.739Z,60.60
2019-05-23T02:27:53.016Z,60.70
2019-05-23T02:30:34.155Z,60.70
2019-05-23T02:32:50.695Z,60.80
2019-05-23T02:35:17.945Z,60.80
2019-05-23T02:37:49.189Z,60.90
2019-05-23T02:40:23.511Z,61.10
2019-05-23T02:42:57.825Z,60.90
2019-05-23T02:45:27.945Z,61.00
2019-05-23T02:47:55.505Z,61.00
2019-05-23T02:50:38.015Z,61.20
2019-05-23T02:53:09.157Z,61.20
2019-05-23T02:55:38.293Z,61.30
2019-05-23T02:58:11.431Z,61.30
2019-05-23T03:00:58.864Z,61.30
2019-05-23T03:03:28.785Z,61.40
2019-05-23T03:05:58.233Z,61.90
2019-05-23T03:08:24.721Z,62.30
2019-05-23T03:10:56.664Z,61.30
2019-05-23T03:13:25.884Z,61.40
2019-05-23T03:15:53.253Z,61.50
2019-05-23T03:18:21.637Z,61.60
2019-05-23T03:20:50.215Z,61.60
2019-05-23T03:23:17.141Z,61.60
2019-05-23T03:26:01.194Z,61.70
2019-05-23T03:28:32.331Z,61.80
2019-05-23T03:31:25.299Z,61.80
2019-05-23T03:33:28.786Z,61.90
2019-05-23T03:35:56.973Z,62.00
2019-05-23T03:38:23.388Z,62.10
2019-05-23T03:40:50.740Z,62.10
2019-05-23T03:43:16.972Z,62.30
2019-05-23T03:45:57.499Z,62.40
2019-05-23T03:48:25.114Z,62.50
2019-05-23T03:50:54.187Z,62.50
2019-05-23T03:53:23.179Z,62.60
2019-05-23T03:55:51.576Z,62.60
2019-05-23T03:58:18.196Z,62.70
2019-05-23T04:00:46.888Z,62.80
2019-05-23T04:03:34.717Z,62.90
2019-05-23T04:06:02.407Z,61.80
2019-05-23T04:08:29.229Z,62.90
2019-05-23T04:10:55.958Z,63.00
2019-05-23T04:13:23.099Z,63.10
2019-05-23T04:15:49.554Z,63.40
2019-05-23T04:18:16.247Z,63.40
2019-05-23T04:20:43.077Z,63.50
2019-05-23T04:23:09.774Z,63.60
2019-05-23T04:25:37.762Z,63.80
2019-05-23T04:28:04.787Z,64.10
2019-05-23T04:30:32.248Z,64.20
2019-05-23T04:32:59.077Z,64.40
2019-05-23T04:35:25.453Z,65.00
2019-05-23T04:37:52.145Z,65.10
2019-05-23T04:40:18.591Z,65.30
2019-05-23T04:42:44.881Z,65.50
2019-05-23T04:45:11.863Z,65.60
2019-05-23T04:47:38.706Z,65.70
2019-05-23T04:50:07.389Z,65.80
2019-05-23T04:52:34.028Z,66.00
2019-05-23T04:55:02.001Z,66.10
2019-05-23T04:57:28.942Z,66.20
2019-05-23T04:59:55.991Z,66.30
2019-05-23T05:02:26.164Z,66.50
2019-05-23T05:04:51.131Z,66.70
2019-05-23T05:07:17.539Z,66.80
2019-05-23T05:09:45.718Z,67.00
2019-05-23T05:12:12.555Z,67.30
2019-05-23T05:14:39.092Z,67.50
2019-05-23T05:17:05.835Z,67.70
2019-05-23T05:19:32.472Z,68.00
2019-05-23T05:21:59.008Z,68.30
2019-05-23T05:24:25.436Z,68.80
2019-05-23T05:26:52.086Z,69.00
2019-05-23T05:29:20.056Z,69.20
2019-05-23T05:31:46.386Z,69.40
2019-05-23T05:34:13.115Z,69.60
2019-05-23T05:36:39.957Z,70.20
2019-05-23T05:39:07.412Z,72.10
2019-05-23T05:41:33.977Z,74.30
2019-05-23T05:44:00.186Z,76.10
2019-05-23T05:46:26.854Z,78.10
2019-05-23T05:48:54.289Z,78.10
2019-05-23T05:51:21.224Z,78.60
2019-05-23T05:53:48.869Z,79.30
2019-05-23T05:56:15.541Z,79.30
2019-05-23T05:58:41.949Z,78.80
2019-05-23T06:01:10.147Z,78.10
2019-05-23T06:03:37.455Z,77.40
2019-05-23T06:06:11.498Z,75.60
2019-05-23T06:08:39.983Z,74.30
2019-05-23T06:11:06.622Z,73.30
2019-05-23T06:13:33.344Z,70.80
2019-05-23T06:15:59.785Z,68.50
2019-05-23T06:18:26.477Z,65.90
2019-05-23T06:20:53.673Z,64.10
2019-05-23T06:23:20.724Z,62.30
2019-05-23T06:25:47.359Z,61.30
2019-05-23T06:28:14.860Z,59.90
2019-05-23T06:30:41.900Z,61.00
2019-05-23T06:33:22.769Z,60.00
2019-05-23T06:35:38.180Z,59.50
2019-05-23T06:38:05.053Z,58.70
2019-05-23T06:40:31.913Z,58.50
2019-05-23T06:42:58.844Z,58.10
2019-05-23T06:45:26.401Z,57.70
2019-05-23T06:47:53.139Z,56.10
2019-05-23T06:50:20.137Z,55.30
2019-05-23T06:52:46.522Z,55.20
2019-05-23T06:55:13.479Z,55.20
2019-05-23T06:57:40.102Z,54.80
2019-05-23T07:00:07.047Z,54.80
2019-05-23T07:02:35.809Z,54.80
2019-05-23T07:05:02.912Z,53.30
2019-05-23T07:07:30.686Z,53.00
2019-05-23T07:09:58.347Z,54.10
2019-05-23T07:12:24.955Z,52.90
2019-05-23T07:14:51.275Z,52.60
2019-05-23T07:17:20.072Z,51.80
2019-05-23T07:19:46.597Z,51.20
2019-05-23T07:22:13.445Z,51.00
2019-05-23T07:24:55.178Z,51.60
2019-05-23T07:27:08.133Z,50.50
2019-05-23T07:29:35.953Z,50.10
2019-05-23T07:32:03.469Z,50.20
2019-05-23T07:34:29.734Z,49.10
2019-05-23T07:36:56.036Z,48.70
2019-05-23T07:39:22.967Z,48.40
2019-05-23T07:41:49.508Z,48.30
2019-05-23T07:44:16.661Z,47.60
2019-05-23T07:46:43.666Z,47.70
2019-05-23T07:49:10.447Z,47.10
2019-05-23T07:51:36.877Z,46.70
2019-05-23T07:54:11.404Z,47.00
2019-05-23T07:56:39.806Z,46.40
2019-05-23T07:59:06.318Z,45.90
2019-05-23T08:01:35.105Z,47.10
2019-05-23T08:04:18.022Z,46.60
2019-05-23T08:06:30.121Z,46.90
2019-05-23T08:08:58.193Z,46.80
2019-05-23T08:11:26.749Z,46.40
2019-05-23T08:13:53.910Z,45.90
2019-05-23T08:16:20.266Z,45.70
2019-05-23T08:18:47.056Z,45.70
2019-05-23T08:21:13.430Z,44.80
2019-05-23T08:23:40.213Z,45.00
2019-05-23T08:26:07.316Z,45.10
2019-05-23T08:28:33.865Z,44.40
2019-05-23T08:31:00.487Z,44.80
2019-05-23T08:33:27.756Z,43.50
2019-05-23T08:35:55.710Z,44.30
2019-05-23T08:38:22.653Z,44.00
2019-05-23T08:40:49.189Z,43.40
2019-05-23T08:43:15.828Z,44.10
2019-05-23T08:45:42.260Z,43.40
2019-05-23T08:48:09.477Z,44.00
2019-05-23T08:50:36.353Z,43.00
2019-05-23T08:53:02.786Z,43.20
2019-05-23T08:55:29.631Z,42.80
2019-05-23T08:57:56.681Z,41.80
2019-05-23T09:00:25.613Z,42.60
2019-05-23T09:02:52.817Z,42.90
2019-05-23T09:05:20.993Z,42.60
2019-05-23T09:07:47.628Z,42.80
2019-05-23T09:10:14.355Z,42.70
2019-05-23T09:12:40.898Z,41.10
2019-05-23T09:15:10.104Z,41.80
2019-05-23T09:17:51.380Z,41.50
2019-05-23T09:20:07.452Z,41.50
2019-05-23T09:22:33.808Z,41.40
2019-05-23T09:25:00.134Z,40.60
2019-05-23T09:27:26.771Z,39.30
2019-05-23T09:29:53.513Z,40.00
2019-05-23T09:32:19.946Z,40.20
2019-05-23T09:34:46.484Z,40.80
2019-05-23T09:37:13.146Z,40.20
2019-05-23T09:39:40.577Z,40.40
2019-05-23T09:42:07.076Z,39.10
2019-05-23T09:44:33.441Z,39.00
2019-05-23T09:47:00.181Z,39.40
2019-05-23T09:49:26.473Z,39.40
2019-05-23T09:51:56.797Z,39.70
2019-05-23T09:54:21.487Z,39.60
2019-05-23T09:56:48.593Z,39.00
2019-05-23T09:59:15.108Z,37.70
2019-05-23T10:01:42.121Z,38.70
2019-05-23T10:04:08.796Z,38.60
2019-05-23T10:06:35.330Z,37.30
2019-05-23T10:09:03.066Z,37.40
2019-05-23T10:11:29.653Z,37.80
2019-05-23T10:13:56.063Z,36.80
2019-05-23T10:16:24.068Z,36.40
2019-05-23T10:18:50.514Z,37.30
2019-05-23T10:21:17.066Z,36.30
2019-05-23T10:23:43.533Z,37.10
2019-05-23T10:26:10.070Z,37.90
2019-05-23T10:28:36.309Z,37.80
2019-05-23T10:31:04.675Z,37.70
2019-05-23T10:33:31.121Z,36.60
2019-05-23T10:36:00.794Z,36.20
2019-05-23T10:38:29.137Z,36.00
2019-05-23T10:40:54.092Z,35.80
2019-05-23T10:43:20.487Z,36.10
2019-05-23T10:45:46.859Z,36.10
2019-05-23T10:48:15.407Z,36.40
2019-05-23T10:50:44.555Z,36.70
2019-05-23T10:53:10.044Z,37.20
2019-05-23T10:55:36.787Z,36.60
2019-05-23T10:58:04.037Z,35.90
2019-05-23T11:00:32.622Z,35.60
2019-05-23T11:02:59.490Z,35.50
2019-05-23T11:05:26.408Z,35.50
2019-05-23T11:07:53.047Z,35.30
2019-05-23T11:10:20.344Z,35.60
2019-05-23T11:12:46.840Z,34.70
2019-05-23T11:15:14.845Z,35.00
2019-05-23T11:17:41.185Z,34.90
2019-05-23T11:20:09.386Z,35.10
2019-05-23T11:22:35.845Z,34.20
2019-05-23T11:25:04.651Z,33.90
2019-05-23T11:27:31.350Z,34.30
2019-05-23T11:29:58.015Z,34.40
2019-05-23T11:32:24.648Z,33.80
2019-05-23T11:34:51.283Z,34.50
2019-05-23T11:37:17.817Z,34.50
2019-05-23T11:39:49.991Z,33.80
2019-05-23T11:42:12.531Z,34.10
2019-05-23T11:44:38.962Z,34.90
2019-05-23T11:47:05.910Z,34.20
2019-05-23T11:49:32.861Z,34.20
2019-05-23T11:51:59.293Z,33.80
2019-05-23T11:54:26.334Z,33.80
2019-05-23T11:56:55.228Z,32.40
2019-05-23T11:59:21.683Z,32.20
2019-05-23T12:01:50.135Z,32.30
2019-05-23T12:04:18.583Z,32.90
2019-05-23T12:06:56.612Z,33.10
2019-05-23T12:09:23.386Z,33.00
2019-05-23T12:11:50.534Z,33.10
2019-05-23T12:14:17.239Z,33.10
2019-05-23T12:16:43.605Z,32.60
2019-05-23T12:19:11.272Z,32.30
2019-05-23T12:21:38.145Z,31.50
2019-05-23T12:24:04.854Z,31.90
2019-05-23T12:26:31.304Z,31.80
2019-05-23T12:28:57.760Z,31.60
2019-05-23T12:31:24.296Z,32.00
2019-05-23T12:33:50.625Z,32.20
2019-05-23T12:36:17.280Z,32.00
2019-05-23T12:38:43.580Z,32.10
2019-05-23T12:41:12.078Z,32.10
2019-05-23T12:43:38.407Z,32.20
2019-05-23T12:46:05.059Z,32.30
2019-05-23T12:48:42.450Z,31.70
2019-05-23T12:51:14.292Z,31.60
2019-05-23T12:53:40.726Z,31.50
2019-05-23T12:56:07.168Z,31.60
2019-05-23T12:58:35.538Z,30.40
2019-05-23T13:01:03.717Z,30.20
2019-05-23T13:03:30.514Z,30.40
2019-05-23T13:05:57.550Z,30.10
2019-05-23T13:08:24.238Z,30.50
2019-05-23T13:10:50.577Z,30.00
2019-05-23T13:13:16.879Z,30.20
2019-05-23T13:15:44.169Z,30.10
2019-05-23T13:18:10.649Z,31.20
2019-05-23T13:20:38.349Z,31.30
2019-05-23T13:23:04.948Z,31.20
2019-05-23T13:25:31.989Z,30.80
2019-05-23T13:27:58.963Z,30.30
2019-05-23T13:30:26.535Z,30.30
2019-05-23T13:32:52.866Z,30.00
2019-05-23T13:35:19.487Z,29.70
2019-05-23T13:37:53.708Z,29.10
2019-05-23T13:40:14.748Z,28.90
2019-05-23T13:42:41.365Z,29.50
2019-05-23T13:45:08.719Z,29.00
2019-05-23T13:47:35.381Z,28.70
2019-05-23T13:50:06.224Z,28.70
2019-05-23T13:52:32.624Z,28.90
2019-05-23T13:54:58.954Z,28.90
2019-05-23T13:57:25.631Z,28.50
2019-05-23T13:59:52.351Z,29.00
2019-05-23T14:02:19.275Z,28.10
2019-05-23T14:04:45.961Z,28.10
2019-05-23T14:07:12.435Z,28.10
2019-05-23T14:09:39.274Z,27.90
2019-05-23T14:12:20.807Z,27.70
2019-05-23T14:14:34.059Z,27.80
2019-05-23T14:17:14.790Z,26.90
2019-05-23T14:19:41.206Z,27.10
2019-05-23T14:22:07.748Z,27.50
2019-05-23T14:24:37.703Z,27.60
2019-05-23T14:27:05.008Z,26.40
2019-05-23T14:29:31.337Z,27.10
2019-05-23T14:32:11.296Z,27.10
2019-05-23T14:34:37.596Z,27.30
2019-05-23T14:37:05.914Z,27.60
2019-05-23T14:39:36.321Z,27.80
2019-05-23T14:42:17.404Z,27.40
2019-05-23T14:44:43.897Z,27.50
2019-05-23T14:47:17.817Z,26.50
2019-05-23T14:49:46.024Z,27.00
2019-05-23T14:52:17.257Z,27.50
2019-05-23T14:54:45.839Z,26.60
2019-05-23T14:57:12.769Z,27.00
2019-05-23T14:59:39.690Z,26.90
2019-05-23T15:02:08.327Z,27.30
2019-05-23T15:04:35.158Z,26.90
2019-05-23T15:07:02.385Z,27.20
2019-05-23T15:09:28.839Z,26.80
2019-05-23T15:11:55.580Z,26.90
2019-05-23T15:14:22.062Z,26.80
2019-05-23T15:16:48.478Z,26.50
2019-05-23T15:19:14.887Z,26.30
2019-05-23T15:21:41.396Z,26.70
2019-05-23T15:24:08.053Z,26.40
2019-05-23T15:26:34.789Z,26.30
2019-05-23T15:29:01.230Z,26.30
2019-05-23T15:31:28.089Z,25.70
2019-05-23T15:33:54.709Z,26.00
2019-05-23T15:36:21.041Z,26.10
2019-05-23T15:38:47.396Z,26.60
2019-05-23T15:41:13.800Z,26.70
2019-05-23T15:43:41.256Z,26.70
2019-05-23T15:46:07.790Z,26.50
2019-05-23T15:48:34.226Z,26.90
2019-05-23T15:51:00.657Z,27.20
2019-05-23T15:53:30.524Z,26.60
2019-05-23T15:55:58.852Z,27.40
2019-05-23T15:58:36.357Z,26.60
2019-05-23T16:01:05.025Z,26.80
2019-05-23T16:03:33.473Z,27.30
2019-05-23T16:06:01.064Z,27.40
2019-05-23T16:08:27.599Z,27.00
2019-05-23T16:10:54.032Z,27.10
2019-05-23T16:13:22.413Z,27.70
2019-05-23T16:15:48.845Z,27.20
2019-05-23T16:18:16.301Z,26.50
2019-05-23T16:20:42.746Z,26.80
2019-05-23T16:23:09.369Z,27.10
2019-05-23T16:25:35.805Z,27.60
2019-05-23T16:28:02.557Z,27.70
2019-05-23T16:30:29.007Z,28.00
2019-05-23T16:32:55.723Z,28.00
2019-05-23T16:35:22.379Z,27.60
2019-05-23T16:37:48.727Z,27.40
2019-05-23T16:40:15.219Z,27.50
2019-05-23T16:42:41.550Z,27.40
2019-05-23T16:45:08.394Z,27.30
2019-05-23T16:47:34.838Z,27.00
2019-05-23T16:50:02.285Z,25.70
2019-05-23T16:52:29.142Z,25.30
2019-05-23T16:54:56.684Z,24.70
2019-05-23T16:57:43.186Z,24.50
2019-05-23T17:00:29.183Z,23.50
2019-05-23T17:02:57.499Z,23.30
2019-05-23T17:05:41.092Z,23.90
2019-05-23T17:08:09.269Z,24.00
2019-05-23T17:10:37.543Z,23.60
2019-05-23T17:13:05.919Z,23.80
2019-05-23T17:15:36.818Z,23.30
2019-05-23T17:18:22.542Z,24.10
2019-05-23T17:21:06.287Z,24.30
2019-05-23T17:23:46.743Z,24.30
2019-05-23T17:26:20.957Z,24.20
2019-05-23T17:28:49.070Z,25.00
2019-05-23T17:31:20.078Z,24.80
2019-05-23T17:33:46.606Z,25.30
2019-05-23T17:36:13.137Z,25.30
2019-05-23T17:38:39.572Z,25.80
2019-05-23T17:41:05.902Z,26.40
2019-05-23T17:43:32.349Z,25.90
2019-05-23T17:45:58.886Z,25.80
2019-05-23T17:48:25.406Z,26.30
2019-05-23T17:50:51.735Z,25.70
2019-05-23T17:53:18.615Z,26.10
2019-05-23T17:55:46.053Z,26.50
2019-05-23T17:58:12.568Z,26.90
2019-05-23T18:00:41.005Z,27.60
2019-05-23T18:03:07.578Z,27.40
2019-05-23T18:05:34.633Z,27.40
2019-05-23T18:08:01.208Z,27.50
2019-05-23T18:10:43.355Z,27.10
2019-05-23T18:12:56.150Z,27.40
2019-05-23T18:15:23.275Z,27.40
2019-05-23T18:17:49.987Z,27.10
2019-05-23T18:20:16.546Z,27.00
2019-05-23T18:22:43.818Z,27.10
2019-05-23T18:25:12.423Z,26.60
2019-05-23T18:27:39.867Z,26.80
2019-05-23T18:30:09.137Z,26.70
2019-05-23T18:32:35.350Z,26.50
2019-05-23T18:35:04.272Z,26.80
2019-05-23T18:37:30.689Z,27.20
2019-05-23T18:39:57.842Z,27.40
2019-05-23T18:42:24.667Z,27.70
2019-05-23T18:44:50.969Z,27.80
2019-05-23T18:47:19.513Z,28.10
2019-05-23T18:49:47.319Z,28.90
2019-05-23T18:52:13.691Z,28.60
2019-05-23T18:54:42.196Z,28.80
2019-05-23T18:57:08.809Z,29.10
2019-05-23T18:59:35.856Z,29.20
2019-05-23T19:02:03.269Z,29.50
2019-05-23T19:04:29.849Z,29.80
2019-05-23T19:06:56.413Z,29.90
2019-05-23T19:09:24.588Z,30.50
2019-05-23T19:11:52.276Z,30.90
2019-05-23T19:14:19.167Z,31.10
2019-05-23T19:16:47.236Z,31.40
2019-05-23T19:19:15.309Z,31.60
2019-05-23T19:21:41.860Z,32.10
2019-05-23T19:24:08.863Z,32.40
2019-05-23T19:26:36.422Z,32.60
2019-05-23T19:29:03.291Z,33.10
2019-05-23T19:31:29.949Z,33.10
2019-05-23T19:33:56.346Z,33.50
2019-05-23T19:36:23.303Z,33.90
2019-05-23T19:38:49.941Z,34.10
2019-05-23T19:41:16.903Z,34.30
2019-05-23T19:43:43.492Z,34.70
2019-05-23T19:46:10.610Z,34.80
2019-05-23T19:48:39.489Z,35.10
2019-05-23T19:51:06.731Z,35.40
2019-05-23T19:53:33.567Z,35.60
2019-05-23T19:56:00.309Z,35.70
2019-05-23T19:58:26.830Z,36.10
2019-05-23T20:00:53.196Z,36.30
2019-05-23T20:03:19.606Z,36.50
2019-05-23T20:05:47.923Z,36.90
2019-05-23T20:08:14.526Z,37.10
2019-05-23T20:10:41.267Z,37.20
2019-05-23T20:13:07.987Z,37.40
2019-05-23T20:15:34.523Z,38.20
2019-05-23T20:18:01.030Z,38.00
2019-05-23T20:20:27.943Z,38.30
2019-05-23T20:22:54.333Z,38.60
2019-05-23T20:25:20.974Z,38.80
2019-05-23T20:27:47.430Z,38.90
2019-05-23T20:30:42.508Z,39.20
2019-05-23T20:33:08.914Z,39.50
2019-05-23T20:35:35.253Z,40.30
2019-05-23T20:38:01.914Z,40.10
2019-05-23T20:40:28.754Z,40.20
2019-05-23T20:42:55.081Z,40.20
2019-05-23T20:45:21.416Z,40.20
2019-05-23T20:47:47.951Z,40.30
2019-05-23T20:50:14.589Z,40.40
2019-05-23T20:52:40.924Z,40.50
2019-05-23T20:55:07.527Z,40.80
2019-05-23T20:57:33.973Z,41.10
2019-05-23T21:00:00.472Z,41.40
2019-05-23T21:02:27.161Z,41.80
2019-05-23T21:04:53.594Z,41.40
2019-05-23T21:07:20.032Z,41.50
2019-05-23T21:09:47.715Z,41.60
2019-05-23T21:12:28.796Z,42.20
2019-05-23T21:14:42.317Z,42.00
2019-05-23T21:17:08.734Z,42.10
2019-05-23T21:19:35.572Z,42.20
2019-05-23T21:22:02.068Z,42.20
2019-05-23T21:24:30.496Z,42.50
2019-05-23T21:26:57.398Z,42.60
2019-05-23T21:29:23.798Z,42.70
2019-05-23T21:31:50.300Z,43.00
2019-05-23T21:34:16.605Z,43.20
2019-05-23T21:36:42.952Z,43.30
2019-05-23T21:39:11.342Z,43.40
2019-05-23T21:41:38.377Z,43.40
2019-05-23T21:44:05.015Z,43.60
2019-05-23T21:46:32.064Z,43.50
2019-05-23T21:48:58.405Z,43.70
2019-05-23T21:51:24.835Z,43.70
2019-05-23T21:53:51.261Z,43.70
2019-05-23T21:56:17.816Z,43.80
2019-05-23T21:58:45.165Z,43.80
2019-05-23T22:01:14.982Z,43.80
2019-05-23T22:03:49.790Z,44.10
2019-05-23T22:06:18.299Z,44.30
2019-05-23T22:08:45.215Z,44.50
2019-05-23T22:11:12.965Z,44.50
2019-05-23T22:13:39.515Z,44.80
2019-05-23T22:16:06.357Z,44.90
2019-05-23T22:18:32.791Z,45.00
2019-05-23T22:20:59.176Z,45.20
2019-05-23T22:23:25.553Z,45.20
2019-05-23T22:25:51.993Z,45.10
2019-05-23T22:28:18.880Z,45.20
2019-05-23T22:30:45.165Z,45.20
2019-05-23T22:33:12.664Z,45.30
2019-05-23T22:35:39.459Z,45.40
2019-05-23T22:38:06.250Z,45.50
2019-05-23T22:40:32.940Z,45.60
2019-05-23T22:42:59.473Z,45.90
2019-05-23T22:45:27.136Z,46.00
2019-05-23T22:47:53.995Z,46.10
2019-05-23T22:50:20.311Z,46.20
2019-05-23T22:52:47.068Z,46.30
2019-05-23T22:55:13.385Z,46.50
2019-05-23T22:57:39.827Z,46.70
2019-05-23T23:00:06.450Z,47.10
2019-05-23T23:02:32.884Z,47.00
2019-05-23T23:04:59.325Z,47.20
2019-05-23T23:07:26.238Z,47.50
2019-05-23T23:09:52.590Z,47.40
2019-05-23T23:12:18.920Z,47.50
2019-05-23T23:14:45.355Z,47.60
2019-05-23T23:17:11.685Z,47.60
2019-05-23T23:19:38.218Z,47.80
2019-05-23T23:22:06.630Z,47.80
2019-05-23T23:24:33.031Z,48.00
2019-05-23T23:26:59.467Z,47.90
2019-05-23T23:29:25.897Z,48.00
2019-05-23T23:31:52.226Z,48.20
2019-05-23T23:34:18.499Z,48.20
2019-05-23T23:36:44.886Z,48.30
2019-05-23T23:39:11.617Z,48.40
2019-05-23T23:41:37.963Z,48.60
2019-05-23T23:44:05.621Z,48.50
2019-05-23T23:46:50.398Z,48.70
2019-05-23T23:49:35.245Z,48.80
2019-05-23T23:52:20.213Z,49.10
2019-05-23T23:55:04.872Z,49.30
2019-05-23T23:57:49.847Z,49.20
